createdAt,value
2023-05-24T00:00:10.199Z,10.13
2023-05-24T00:01:10.289Z,10.13
2023-05-24T00:02:10.374Z,10.11
2023-05-24T00:03:10.583Z,10.07
2023-05-24T00:04:10.604Z,9.99
2023-05-24T00:05:10.770Z,10.01
2023-05-24T00:06:10.735Z,9.96
2023-05-24T00:07:10.808Z,9.93
2023-05-24T00:08:10.909Z,9.89
2023-05-24T00:09:10.957Z,9.86
2023-05-24T00:10:11.075Z,9.86
2023-05-24T00:11:11.125Z,9.91
2023-05-24T00:12:11.232Z,9.93
2023-05-24T00:13:11.289Z,9.88
2023-05-24T00:14:11.363Z,9.83
2023-05-24T00:15:11.411Z,9.86
2023-05-24T00:16:11.539Z,9.83
2023-05-24T00:17:11.566Z,9.81
2023-05-24T00:18:11.690Z,9.80
2023-05-24T00:19:11.746Z,9.77
2023-05-24T00:20:11.883Z,9.80
2023-05-24T00:21:11.906Z,9.78
2023-05-24T00:22:12.023Z,9.81
2023-05-24T00:23:12.079Z,9.75
2023-05-24T00:24:12.148Z,9.74
2023-05-24T00:25:12.192Z,9.78
2023-05-24T00:26:12.287Z,9.71
2023-05-24T00:27:12.406Z,9.75
2023-05-24T00:28:12.498Z,9.77
2023-05-24T00:29:12.578Z,9.77
2023-05-24T00:30:12.619Z,9.67
2023-05-24T00:31:12.727Z,9.70
2023-05-24T00:32:12.830Z,9.68
2023-05-24T00:33:12.901Z,9.65
2023-05-24T00:34:12.955Z,9.60
2023-05-24T00:35:13.044Z,9.71
2023-05-24T00:36:13.145Z,9.73
2023-05-24T00:37:13.261Z,9.70
2023-05-24T00:38:13.341Z,9.68
2023-05-24T00:39:13.427Z,9.70
2023-05-24T00:40:13.521Z,9.68
2023-05-24T00:41:13.616Z,9.59
2023-05-24T00:42:13.703Z,9.52
2023-05-24T00:43:13.841Z,9.49
2023-05-24T00:44:13.868Z,9.44
2023-05-24T00:45:13.967Z,9.44
2023-05-24T00:46:14.082Z,9.42
2023-05-24T00:47:14.144Z,9.41
2023-05-24T00:48:14.240Z,9.41
2023-05-24T00:49:14.306Z,9.41
2023-05-24T00:50:14.357Z,9.42
2023-05-24T00:51:14.454Z,9.44
2023-05-24T00:52:14.542Z,9.42
2023-05-24T00:53:14.679Z,9.42
2023-05-24T00:54:14.684Z,9.42
2023-05-24T00:55:14.788Z,9.42
2023-05-24T00:56:14.838Z,9.42
2023-05-24T00:57:14.946Z,9.41
2023-05-24T00:58:15.024Z,9.40
2023-05-24T00:59:15.097Z,9.38
2023-05-24T01:00:15.182Z,9.38
2023-05-24T01:01:15.303Z,9.38
2023-05-24T01:02:15.364Z,9.37
2023-05-24T01:03:15.560Z,9.38
2023-05-24T01:04:15.544Z,9.37
2023-05-24T01:05:15.620Z,9.37
2023-05-24T01:06:15.672Z,9.40
2023-05-24T01:07:15.748Z,9.40
2023-05-24T01:08:15.853Z,9.41
2023-05-24T01:09:15.940Z,9.35
2023-05-24T01:10:16.017Z,9.34
2023-05-24T01:11:16.103Z,9.27
2023-05-24T01:12:16.187Z,9.26
2023-05-24T01:13:16.313Z,9.24
2023-05-24T01:14:16.351Z,9.22
2023-05-24T01:15:16.453Z,9.22
2023-05-24T01:16:16.619Z,9.20
2023-05-24T01:17:16.626Z,9.20
2023-05-24T01:18:16.710Z,9.20
2023-05-24T01:19:16.779Z,9.17
2023-05-24T01:20:16.895Z,9.19
2023-05-24T01:21:16.911Z,9.17
2023-05-24T01:22:16.989Z,9.17
2023-05-24T01:23:17.101Z,9.17
2023-05-24T01:24:17.151Z,9.15
2023-05-24T01:25:17.236Z,9.10
2023-05-24T01:26:17.349Z,9.10
2023-05-24T01:27:17.417Z,9.06
2023-05-24T01:28:17.536Z,9.03
2023-05-24T01:29:17.592Z,9.03
2023-05-24T01:30:17.685Z,9.01
2023-05-24T01:31:17.811Z,9.00
2023-05-24T01:32:17.858Z,9.00
2023-05-24T01:33:17.956Z,8.97
2023-05-24T01:34:18.029Z,8.97
2023-05-24T01:35:18.103Z,8.94
2023-05-24T01:36:18.196Z,8.93
2023-05-24T01:37:18.236Z,8.94
2023-05-24T01:38:18.365Z,8.93
2023-05-24T01:39:18.411Z,8.93
2023-05-24T01:40:18.505Z,8.89
2023-05-24T01:41:18.584Z,8.91
2023-05-24T01:42:18.680Z,8.93
2023-05-24T01:43:18.783Z,8.94
2023-05-24T01:44:18.840Z,8.89
2023-05-24T01:45:18.874Z,8.88
2023-05-24T01:46:18.978Z,8.86
2023-05-24T01:47:19.027Z,8.83
2023-05-24T01:48:19.467Z,8.83
2023-05-24T01:49:19.206Z,8.78
2023-05-24T01:50:19.300Z,8.78
2023-05-24T01:51:19.411Z,8.78
2023-05-24T01:52:19.533Z,8.75
2023-05-24T01:53:19.578Z,8.70
2023-05-24T01:54:19.648Z,8.65
2023-05-24T01:55:19.720Z,8.63
2023-05-24T01:56:19.792Z,8.65
2023-05-24T01:57:19.862Z,8.67
2023-05-24T01:58:19.955Z,8.65
2023-05-24T01:59:20.014Z,8.68
2023-05-24T02:00:20.095Z,8.73
2023-05-24T02:01:20.220Z,8.68
2023-05-24T02:02:20.366Z,8.65
2023-05-24T02:03:20.471Z,8.58
2023-05-24T02:04:20.473Z,8.52
2023-05-24T02:05:20.542Z,8.50
2023-05-24T02:06:20.658Z,8.50
2023-05-24T02:07:20.683Z,8.50
2023-05-24T02:08:20.788Z,8.50
2023-05-24T02:09:20.812Z,8.45
2023-05-24T02:10:20.905Z,8.45
2023-05-24T02:11:20.995Z,8.42
2023-05-24T02:12:21.096Z,8.36
2023-05-24T02:13:21.195Z,8.32
2023-05-24T02:14:21.254Z,8.27
2023-05-24T02:15:21.336Z,8.27
2023-05-24T02:16:21.450Z,8.24
2023-05-24T02:17:21.513Z,8.17
2023-05-24T02:18:21.595Z,8.10
2023-05-24T02:19:21.648Z,8.04
2023-05-24T02:20:21.757Z,7.99
2023-05-24T02:21:21.814Z,7.96
2023-05-24T02:22:21.876Z,7.94
2023-05-24T02:23:21.983Z,7.94
2023-05-24T02:24:22.015Z,7.89
2023-05-24T02:25:22.096Z,7.88
2023-05-24T02:26:22.218Z,7.85
2023-05-24T02:27:22.286Z,7.85
2023-05-24T02:28:22.375Z,7.82
2023-05-24T02:29:22.421Z,7.79
2023-05-24T02:30:22.572Z,7.79
2023-05-24T02:31:22.685Z,7.76
2023-05-24T02:32:22.700Z,7.77
2023-05-24T02:33:22.783Z,7.74
2023-05-24T02:34:22.842Z,7.73
2023-05-24T02:35:22.919Z,7.69
2023-05-24T02:36:23.009Z,7.66
2023-05-24T02:37:23.079Z,7.70
2023-05-24T02:38:23.176Z,7.69
2023-05-24T02:39:23.229Z,7.67
2023-05-24T02:40:23.304Z,7.63
2023-05-24T02:41:23.355Z,7.69
2023-05-24T02:42:23.432Z,7.71
2023-05-24T02:43:23.545Z,7.74
2023-05-24T02:44:23.572Z,7.74
2023-05-24T02:45:23.650Z,7.71
2023-05-24T02:46:23.778Z,7.69
2023-05-24T02:47:23.804Z,7.62
2023-05-24T02:48:23.898Z,7.55
2023-05-24T02:49:23.952Z,7.51
2023-05-24T02:50:24.047Z,7.47
2023-05-24T02:51:24.123Z,7.42
2023-05-24T02:52:24.199Z,7.37
2023-05-24T02:53:24.303Z,7.36
2023-05-24T02:54:24.353Z,7.34
2023-05-24T02:55:24.441Z,7.33
2023-05-24T02:56:24.512Z,7.30
2023-05-24T02:57:24.606Z,7.27
2023-05-24T02:58:24.727Z,7.26
2023-05-24T02:59:24.748Z,7.26
2023-05-24T03:00:24.832Z,7.23
2023-05-24T03:01:24.964Z,7.19
2023-05-24T03:02:25.026Z,7.18
2023-05-24T03:03:27.176Z,7.19
2023-05-24T03:04:25.208Z,7.18
2023-05-24T03:05:25.281Z,7.16
2023-05-24T03:06:25.365Z,7.12
2023-05-24T03:07:25.411Z,7.11
2023-05-24T03:08:25.535Z,7.05
2023-05-24T03:09:25.590Z,7.05
2023-05-24T03:10:25.694Z,7.04
2023-05-24T03:11:25.768Z,7.01
2023-05-24T03:12:25.868Z,7.04
2023-05-24T03:13:26.001Z,7.00
2023-05-24T03:14:26.063Z,7.01
2023-05-24T03:15:26.151Z,7.00
2023-05-24T03:16:26.255Z,6.99
2023-05-24T03:17:26.367Z,6.97
2023-05-24T03:18:26.404Z,6.96
2023-05-24T03:19:26.433Z,6.99
2023-05-24T03:20:26.568Z,7.00
2023-05-24T03:21:26.663Z,7.05
2023-05-24T03:22:26.686Z,7.08
2023-05-24T03:23:26.771Z,7.11
2023-05-24T03:24:26.842Z,7.14
2023-05-24T03:25:26.896Z,7.12
2023-05-24T03:26:27.020Z,7.11
2023-05-24T03:27:27.063Z,7.11
2023-05-24T03:28:27.167Z,7.11
2023-05-24T03:29:27.222Z,7.07
2023-05-24T03:30:27.304Z,7.04
2023-05-24T03:31:27.401Z,7.00
2023-05-24T03:32:27.498Z,6.96
2023-05-24T03:33:27.552Z,6.91
2023-05-24T03:34:27.657Z,6.90
2023-05-24T03:35:27.717Z,6.94
2023-05-24T03:36:27.789Z,6.99
2023-05-24T03:37:27.865Z,7.08
2023-05-24T03:38:27.981Z,7.08
2023-05-24T03:39:28.057Z,7.11
2023-05-24T03:40:28.128Z,7.08
2023-05-24T03:41:28.192Z,7.07
2023-05-24T03:42:28.285Z,7.05
2023-05-24T03:43:28.382Z,7.05
2023-05-24T03:44:28.414Z,7.04
2023-05-24T03:45:38.407Z,7.01
2023-05-24T03:46:28.634Z,7.00
2023-05-24T03:47:28.940Z,7.01
2023-05-24T03:48:28.730Z,7.04
2023-05-24T03:49:28.862Z,7.05
2023-05-24T03:50:28.870Z,7.05
2023-05-24T03:51:28.948Z,7.04
2023-05-24T03:52:29.023Z,7.04
2023-05-24T03:53:29.108Z,6.99
2023-05-24T03:54:29.236Z,6.96
2023-05-24T03:55:29.282Z,6.94
2023-05-24T03:56:29.380Z,6.93
2023-05-24T03:57:29.477Z,6.93
2023-05-24T03:58:29.570Z,6.90
2023-05-24T03:59:29.639Z,6.91
2023-05-24T04:00:29.742Z,6.91
2023-05-24T04:01:34.291Z,6.89
2023-05-24T04:02:30.018Z,6.90
2023-05-24T04:03:30.080Z,6.91
2023-05-24T04:04:30.133Z,6.93
2023-05-24T04:05:30.197Z,6.93
2023-05-24T04:06:30.280Z,6.94
2023-05-24T04:07:30.314Z,7.01
2023-05-24T04:08:30.413Z,7.08
2023-05-24T04:09:30.511Z,7.12
2023-05-24T04:10:30.576Z,7.16
2023-05-24T04:11:30.652Z,7.09
2023-05-24T04:12:30.751Z,7.08
2023-05-24T04:13:30.788Z,7.05
2023-05-24T04:14:30.900Z,7.08
2023-05-24T04:15:30.947Z,7.12
2023-05-24T04:16:31.063Z,7.16
2023-05-24T04:17:31.298Z,7.19
2023-05-24T04:18:31.285Z,7.21
2023-05-24T04:19:31.304Z,7.23
2023-05-24T04:20:31.372Z,7.24
2023-05-24T04:21:31.408Z,7.24
2023-05-24T04:22:31.509Z,7.24
2023-05-24T04:23:31.574Z,7.27
2023-05-24T04:24:31.677Z,7.27
2023-05-24T04:25:31.721Z,7.24
2023-05-24T04:26:31.829Z,7.27
2023-05-24T04:27:31.891Z,7.29
2023-05-24T04:28:31.967Z,7.29
2023-05-24T04:29:32.062Z,7.29
2023-05-24T04:30:32.137Z,7.33
2023-05-24T04:31:32.282Z,7.32
2023-05-24T04:32:32.355Z,7.37
2023-05-24T04:33:32.396Z,7.41
2023-05-24T04:34:32.516Z,7.44
2023-05-24T04:35:32.583Z,7.42
2023-05-24T04:36:32.685Z,7.47
2023-05-24T04:37:32.748Z,7.50
2023-05-24T04:38:32.855Z,7.54
2023-05-24T04:39:32.930Z,7.58
2023-05-24T04:40:33.029Z,7.62
2023-05-24T04:41:33.100Z,7.63
2023-05-24T04:42:33.170Z,7.66
2023-05-24T04:43:33.237Z,7.66
2023-05-24T04:44:33.322Z,7.66
2023-05-24T04:45:33.387Z,7.67
2023-05-24T04:46:33.463Z,7.66
2023-05-24T04:47:33.629Z,7.67
2023-05-24T04:48:33.624Z,7.74
2023-05-24T04:49:33.745Z,7.81
2023-05-24T04:50:33.798Z,7.84
2023-05-24T04:51:33.939Z,7.82
2023-05-24T04:52:33.961Z,7.85
2023-05-24T04:53:34.063Z,7.88
2023-05-24T04:54:34.168Z,7.91
2023-05-24T04:55:34.229Z,8.03
2023-05-24T04:56:34.293Z,8.07
2023-05-24T04:57:34.380Z,8.13
2023-05-24T04:58:34.456Z,8.17
2023-05-24T04:59:34.575Z,8.18
2023-05-24T05:00:34.619Z,8.24
2023-05-24T05:01:34.707Z,8.27
2023-05-24T05:02:34.790Z,8.28
2023-05-24T05:03:35.002Z,8.31
2023-05-24T05:04:34.934Z,8.36
2023-05-24T05:05:35.023Z,8.36
2023-05-24T05:06:35.096Z,8.40
2023-05-24T05:07:35.153Z,8.45
2023-05-24T05:08:35.216Z,8.47
2023-05-24T05:09:35.323Z,8.54
2023-05-24T05:10:35.387Z,8.58
2023-05-24T05:11:35.506Z,8.57
2023-05-24T05:12:35.567Z,8.55
2023-05-24T05:13:35.619Z,8.57
2023-05-24T05:14:35.696Z,8.63
2023-05-24T05:15:35.767Z,8.68
2023-05-24T05:16:35.844Z,8.75
2023-05-24T05:17:35.933Z,8.78
2023-05-24T05:18:35.973Z,8.82
2023-05-24T05:19:36.086Z,8.86
2023-05-24T05:20:36.256Z,8.86
2023-05-24T05:21:36.235Z,8.93
2023-05-24T05:22:36.318Z,8.98
2023-05-24T05:23:36.429Z,9.03
2023-05-24T05:24:36.560Z,9.10
2023-05-24T05:25:36.591Z,9.12
2023-05-24T05:26:36.687Z,9.19
2023-05-24T05:27:36.771Z,9.24
2023-05-24T05:28:36.843Z,9.22
2023-05-24T05:29:36.938Z,9.23
2023-05-24T05:30:37.011Z,9.26
2023-05-24T05:31:37.094Z,9.24
2023-05-24T05:32:37.233Z,9.23
2023-05-24T05:33:37.288Z,9.19
2023-05-24T05:34:37.342Z,9.23
2023-05-24T05:35:37.427Z,9.31
2023-05-24T05:36:37.516Z,9.34
2023-05-24T05:37:37.614Z,9.42
2023-05-24T05:38:37.688Z,9.52
2023-05-24T05:39:37.775Z,9.60
2023-05-24T05:40:37.828Z,9.75
2023-05-24T05:41:37.923Z,9.96
2023-05-24T05:42:38.014Z,10.25
2023-05-24T05:43:38.113Z,10.54
2023-05-24T05:44:38.182Z,10.78
2023-05-24T05:45:38.243Z,11.01
2023-05-24T05:46:38.340Z,11.26
2023-05-24T05:47:38.439Z,11.45
2023-05-24T05:48:38.510Z,11.70
2023-05-24T05:49:38.604Z,11.93
2023-05-24T05:50:38.672Z,12.19
2023-05-24T05:51:38.767Z,12.54
2023-05-24T05:52:38.853Z,12.73
2023-05-24T05:53:38.950Z,12.89
2023-05-24T05:54:39.044Z,13.07
2023-05-24T05:55:39.095Z,13.27
2023-05-24T05:56:39.163Z,13.47
2023-05-24T05:57:39.264Z,13.75
2023-05-24T05:58:39.316Z,13.99
2023-05-24T05:59:39.436Z,14.26
2023-05-24T06:00:39.493Z,14.42
2023-05-24T06:01:39.594Z,14.66
2023-05-24T06:02:39.707Z,14.72
2023-05-24T06:03:40.075Z,14.91
2023-05-24T06:04:39.913Z,15.20
2023-05-24T06:05:39.864Z,15.58
2023-05-24T06:06:39.917Z,15.88
2023-05-24T06:07:40.002Z,16.16
2023-05-24T06:08:40.097Z,16.47
2023-05-24T06:09:40.215Z,16.81
2023-05-24T06:10:40.491Z,16.92
2023-05-24T06:11:40.374Z,16.84
2023-05-24T06:12:40.460Z,16.80
2023-05-24T06:13:40.583Z,16.62
2023-05-24T06:14:40.636Z,16.59
2023-05-24T06:15:40.696Z,16.55
2023-05-24T06:16:40.877Z,16.29
2023-05-24T06:17:40.853Z,16.23
2023-05-24T06:18:47.433Z,16.51
2023-05-24T06:19:41.014Z,16.57
2023-05-24T06:20:41.251Z,16.26
2023-05-24T06:21:41.165Z,16.11
2023-05-24T06:22:41.214Z,16.13
2023-05-24T06:23:41.308Z,16.08
2023-05-24T06:24:41.388Z,16.10
2023-05-24T06:25:41.451Z,16.25
2023-05-24T06:26:41.530Z,16.40
2023-05-24T06:27:41.628Z,16.77
2023-05-24T06:28:41.686Z,16.88
2023-05-24T06:29:41.823Z,16.85
2023-05-24T06:30:42.109Z,16.69
2023-05-24T06:31:41.985Z,16.51
2023-05-24T06:32:42.069Z,16.11
2023-05-24T06:33:46.803Z,15.84
2023-05-24T06:34:42.182Z,16.32
2023-05-24T06:35:42.251Z,16.63
2023-05-24T06:36:42.326Z,16.65
2023-05-24T06:37:42.442Z,16.77
2023-05-24T06:38:42.511Z,17.14
2023-05-24T06:39:42.660Z,17.24
2023-05-24T06:40:42.897Z,17.07
2023-05-24T06:41:42.769Z,17.36
2023-05-24T06:42:42.834Z,17.66
2023-05-24T06:43:42.926Z,18.38
2023-05-24T06:44:43.000Z,19.07
2023-05-24T06:45:43.065Z,19.40
2023-05-24T06:46:43.151Z,19.30
2023-05-24T06:47:43.275Z,19.35
2023-05-24T06:48:43.523Z,19.64
2023-05-24T06:49:43.385Z,19.61
2023-05-24T06:50:43.616Z,19.68
2023-05-24T06:51:43.525Z,19.83
2023-05-24T06:52:43.613Z,19.98
2023-05-24T06:53:43.702Z,20.38
2023-05-24T06:54:43.750Z,20.58
2023-05-24T06:55:43.816Z,20.61
2023-05-24T06:56:43.881Z,20.66
2023-05-24T06:57:43.980Z,20.71
2023-05-24T06:58:44.034Z,20.69
2023-05-24T06:59:44.137Z,20.53
2023-05-24T07:00:44.450Z,19.68
2023-05-24T07:01:44.336Z,19.68
2023-05-24T07:02:44.346Z,19.90
2023-05-24T07:03:44.429Z,19.79
2023-05-24T07:04:44.540Z,20.05
2023-05-24T07:05:44.684Z,19.94
2023-05-24T07:06:44.646Z,19.57
2023-05-24T07:07:44.744Z,19.27
2023-05-24T07:08:44.831Z,18.56
2023-05-24T07:09:44.942Z,18.01
2023-05-24T07:10:45.167Z,17.57
2023-05-24T07:11:45.132Z,17.55
2023-05-24T07:12:45.151Z,17.70
2023-05-24T07:13:45.249Z,17.89
2023-05-24T07:14:45.350Z,17.70
2023-05-24T07:15:45.409Z,17.71
2023-05-24T07:16:45.529Z,17.71
2023-05-24T07:17:45.605Z,18.02
2023-05-24T07:18:45.624Z,17.55
2023-05-24T07:19:45.732Z,16.82
2023-05-24T07:20:45.994Z,16.26
2023-05-24T07:21:45.857Z,16.06
2023-05-24T07:22:45.945Z,15.84
2023-05-24T07:23:46.098Z,15.55
2023-05-24T07:24:46.125Z,16.45
2023-05-24T07:25:46.173Z,17.42
2023-05-24T07:26:46.252Z,17.91
2023-05-24T07:27:46.323Z,18.66
2023-05-24T07:28:46.380Z,19.10
2023-05-24T07:29:48.338Z,19.39
2023-05-24T07:30:46.576Z,19.82
2023-05-24T07:31:46.668Z,20.33
2023-05-24T07:32:46.786Z,20.83
2023-05-24T07:33:46.770Z,21.27
2023-05-24T07:34:46.887Z,21.85
2023-05-24T07:35:46.938Z,22.17
2023-05-24T07:36:47.007Z,22.12
2023-05-24T07:37:47.110Z,20.91
2023-05-24T07:38:47.177Z,20.48
2023-05-24T07:39:47.333Z,19.97
2023-05-24T07:40:47.354Z,19.34
2023-05-24T07:41:47.452Z,18.66
2023-05-24T07:42:47.534Z,17.87
2023-05-24T07:43:47.585Z,17.22
2023-05-24T07:44:47.705Z,16.90
2023-05-24T07:45:47.737Z,16.44
2023-05-24T07:46:47.912Z,16.07
2023-05-24T07:47:47.935Z,16.33
2023-05-24T07:48:47.967Z,15.99
2023-05-24T07:49:48.084Z,15.91
2023-05-24T07:50:48.121Z,15.52
2023-05-24T07:51:48.224Z,15.41
2023-05-24T07:52:48.281Z,15.68
2023-05-24T07:53:48.403Z,16.52
2023-05-24T07:54:48.501Z,16.33
2023-05-24T07:55:48.581Z,16.54
2023-05-24T07:56:48.665Z,16.65
2023-05-24T07:57:48.731Z,16.40
2023-05-24T07:58:48.825Z,16.14
2023-05-24T07:59:48.962Z,15.99
2023-05-24T08:00:49.004Z,15.93
2023-05-24T08:01:49.186Z,16.11
2023-05-24T08:02:49.259Z,16.10
2023-05-24T08:03:49.408Z,16.92
2023-05-24T08:04:49.708Z,16.54
2023-05-24T08:05:49.432Z,15.91
2023-05-24T08:06:49.526Z,15.60
2023-05-24T08:07:49.571Z,15.48
2023-05-24T08:08:49.655Z,15.33
2023-05-24T08:09:49.797Z,15.01
2023-05-24T08:10:49.845Z,15.04
2023-05-24T08:11:49.927Z,15.07
2023-05-24T08:12:49.994Z,15.40
2023-05-24T08:13:50.062Z,15.88
2023-05-24T08:14:50.141Z,16.85
2023-05-24T08:15:50.199Z,17.83
2023-05-24T08:16:50.327Z,18.59
2023-05-24T08:17:50.389Z,19.55
2023-05-24T08:18:52.523Z,20.02
2023-05-24T08:19:50.594Z,20.35
2023-05-24T08:20:50.586Z,20.71
2023-05-24T08:21:50.683Z,20.57
2023-05-24T08:22:50.740Z,20.88
2023-05-24T08:23:50.845Z,21.36
2023-05-24T08:24:50.901Z,22.06
2023-05-24T08:25:50.971Z,22.02
2023-05-24T08:26:51.017Z,21.21
2023-05-24T08:27:51.157Z,20.40
2023-05-24T08:28:51.194Z,19.46
2023-05-24T08:29:51.301Z,18.75
2023-05-24T08:30:51.352Z,18.39
2023-05-24T08:31:51.505Z,17.87
2023-05-24T08:32:51.533Z,17.36
2023-05-24T08:33:51.636Z,17.00
2023-05-24T08:34:57.778Z,16.91
2023-05-24T08:35:51.772Z,17.95
2023-05-24T08:36:51.818Z,18.83
2023-05-24T08:37:51.932Z,19.78
2023-05-24T08:38:52.002Z,19.32
2023-05-24T08:39:52.098Z,19.70
2023-05-24T08:40:52.137Z,19.94
2023-05-24T08:42:07.842Z,20.13
2023-05-24T08:42:52.333Z,20.25
2023-05-24T08:43:52.426Z,20.35
2023-05-24T08:44:52.534Z,20.88
2023-05-24T08:45:52.680Z,21.21
2023-05-24T08:46:52.679Z,21.52
2023-05-24T08:47:52.916Z,21.38
2023-05-24T08:48:52.894Z,21.18
2023-05-24T08:49:53.004Z,20.30
2023-05-24T08:50:53.003Z,20.05
2023-05-24T08:51:53.113Z,20.44
2023-05-24T08:52:53.171Z,21.03
2023-05-24T08:53:53.276Z,21.55
2023-05-24T08:54:53.385Z,21.77
2023-05-24T08:55:53.452Z,21.96
2023-05-24T08:56:53.500Z,21.73
2023-05-24T08:57:53.587Z,20.97
2023-05-24T08:58:53.682Z,20.26
2023-05-24T08:59:53.767Z,19.80
2023-05-24T09:00:53.825Z,19.62
2023-05-24T09:01:53.938Z,19.16
2023-05-24T09:02:53.996Z,18.39
2023-05-24T09:03:54.101Z,17.94
2023-05-24T09:04:54.159Z,17.76
2023-05-24T09:05:54.207Z,17.55
2023-05-24T09:06:54.304Z,17.28
2023-05-24T09:07:54.358Z,16.96
2023-05-24T09:08:54.458Z,16.54
2023-05-24T09:09:54.567Z,16.32
2023-05-24T09:10:55.914Z,16.55
2023-05-24T09:11:54.707Z,16.45
2023-05-24T09:12:54.807Z,16.51
2023-05-24T09:13:54.888Z,16.51
2023-05-24T09:14:54.993Z,16.41
2023-05-24T09:15:55.073Z,16.18
2023-05-24T09:16:55.157Z,16.08
2023-05-24T09:17:55.233Z,16.07
2023-05-24T09:18:55.292Z,16.13
2023-05-24T09:19:55.416Z,16.22
2023-05-24T09:20:55.661Z,16.60
2023-05-24T09:21:55.512Z,16.52
2023-05-24T09:22:55.597Z,16.44
2023-05-24T09:23:55.711Z,16.44
2023-05-24T09:24:55.760Z,16.63
2023-05-24T09:25:55.815Z,17.47
2023-05-24T09:26:55.913Z,17.81
2023-05-24T09:27:56.016Z,17.80
2023-05-24T09:28:56.086Z,17.58
2023-05-24T09:29:56.210Z,17.35
2023-05-24T09:30:56.322Z,17.07
2023-05-24T09:31:56.494Z,17.53
2023-05-24T09:32:56.601Z,17.70
2023-05-24T09:33:56.500Z,17.63
2023-05-24T09:34:56.622Z,17.54
2023-05-24T09:35:56.665Z,17.36
2023-05-24T09:36:56.774Z,17.18
2023-05-24T09:37:56.818Z,16.96
2023-05-24T09:38:56.922Z,16.70
2023-05-24T09:39:56.993Z,16.59
2023-05-24T09:40:57.039Z,16.40
2023-05-24T09:41:57.132Z,16.36
2023-05-24T09:42:57.208Z,16.29
2023-05-24T09:43:57.291Z,16.22
2023-05-24T09:44:57.407Z,16.25
2023-05-24T09:45:57.453Z,16.22
2023-05-24T09:46:57.648Z,16.25
2023-05-24T09:47:57.668Z,16.30
2023-05-24T09:48:57.737Z,16.33
2023-05-24T09:49:57.860Z,16.37
2023-05-24T09:50:57.887Z,16.41
2023-05-24T09:51:58.029Z,16.29
2023-05-24T09:52:58.057Z,16.26
2023-05-24T09:53:58.157Z,16.16
2023-05-24T09:54:58.278Z,16.27
2023-05-24T09:55:58.325Z,16.33
2023-05-24T09:56:58.445Z,16.37
2023-05-24T09:57:58.516Z,16.34
2023-05-24T09:58:58.578Z,16.32
2023-05-24T09:59:58.692Z,16.27
2023-05-24T10:00:58.760Z,16.18
2023-05-24T10:01:58.803Z,16.06
2023-05-24T10:02:58.950Z,16.03
2023-05-24T10:03:59.175Z,15.98
2023-05-24T10:04:59.338Z,15.98
2023-05-24T10:05:59.170Z,16.06
2023-05-24T10:06:59.348Z,16.14
2023-05-24T10:07:59.326Z,16.26
2023-05-24T10:08:59.473Z,16.50
2023-05-24T10:09:59.530Z,16.54
2023-05-24T10:10:59.577Z,16.57
2023-05-24T10:11:59.682Z,16.57
2023-05-24T10:12:59.757Z,16.60
2023-05-24T10:13:59.828Z,16.66
2023-05-24T10:14:59.947Z,16.70
2023-05-24T10:16:00.064Z,16.69
2023-05-24T10:17:00.121Z,16.72
2023-05-24T10:18:00.180Z,16.90
2023-05-24T10:19:00.233Z,17.09
2023-05-24T10:20:00.463Z,17.20
2023-05-24T10:21:00.499Z,17.25
2023-05-24T10:22:00.492Z,17.27
2023-05-24T10:23:00.596Z,17.39
2023-05-24T10:24:00.656Z,17.49
2023-05-24T10:25:00.821Z,17.58
2023-05-24T10:26:00.823Z,17.54
2023-05-24T10:27:00.889Z,17.57
2023-05-24T10:28:00.980Z,17.42
2023-05-24T10:29:01.168Z,17.42
2023-05-24T10:30:01.155Z,17.51
2023-05-24T10:31:01.239Z,17.54
2023-05-24T10:32:01.289Z,17.66
2023-05-24T10:33:01.408Z,17.81
2023-05-24T10:34:07.705Z,17.80
2023-05-24T10:35:01.580Z,17.76
2023-05-24T10:36:01.608Z,17.51
2023-05-24T10:37:01.742Z,17.39
2023-05-24T10:38:01.766Z,17.33
2023-05-24T10:39:01.909Z,17.36
2023-05-24T10:40:01.978Z,17.46
2023-05-24T10:41:02.020Z,17.54
2023-05-24T10:42:02.095Z,17.53
2023-05-24T10:43:02.163Z,17.62
2023-05-24T10:44:09.821Z,17.71
2023-05-24T10:45:02.391Z,17.71
2023-05-24T10:46:02.533Z,17.74
2023-05-24T10:47:02.552Z,17.71
2023-05-24T10:48:02.654Z,17.70
2023-05-24T10:49:02.702Z,17.74
2023-05-24T10:50:02.744Z,17.70
2023-05-24T10:51:02.837Z,17.42
2023-05-24T10:52:02.933Z,17.39
2023-05-24T10:53:03.011Z,17.38
2023-05-24T10:54:03.066Z,17.39
2023-05-24T10:55:04.618Z,17.47
2023-05-24T10:56:03.263Z,17.58
2023-05-24T10:57:03.296Z,17.53
2023-05-24T10:58:03.387Z,17.57
2023-05-24T10:59:03.489Z,17.55
2023-05-24T11:00:03.559Z,17.54
2023-05-24T11:01:03.633Z,17.47
2023-05-24T11:02:03.740Z,17.39
2023-05-24T11:03:03.812Z,17.47
2023-05-24T11:04:03.863Z,17.65
2023-05-24T11:05:03.997Z,17.80
2023-05-24T11:06:04.088Z,17.91
2023-05-24T11:07:04.092Z,18.02
2023-05-24T11:08:04.156Z,18.09
2023-05-24T11:09:04.241Z,18.02
2023-05-24T11:10:04.311Z,17.87
2023-05-24T11:11:19.019Z,17.79
2023-05-24T11:12:04.485Z,17.73
2023-05-24T11:13:04.557Z,17.74
2023-05-24T11:14:04.652Z,17.79
2023-05-24T11:15:04.761Z,17.77
2023-05-24T11:16:04.893Z,17.63
2023-05-24T11:17:04.912Z,17.57
2023-05-24T11:18:05.025Z,17.63
2023-05-24T11:19:05.082Z,17.55
2023-05-24T11:20:05.201Z,17.40
2023-05-24T11:21:05.264Z,17.24
2023-05-24T11:22:05.337Z,17.07
2023-05-24T11:23:05.421Z,17.07
2023-05-24T11:24:05.502Z,17.02
2023-05-24T11:25:05.608Z,16.82
2023-05-24T11:26:05.724Z,16.67
2023-05-24T11:27:05.780Z,16.63
2023-05-24T11:28:05.877Z,16.62
2023-05-24T11:29:05.936Z,16.63
2023-05-24T11:30:06.026Z,16.60
2023-05-24T11:31:06.217Z,16.63
2023-05-24T11:32:06.279Z,16.65
2023-05-24T11:33:06.350Z,16.66
2023-05-24T11:34:06.390Z,16.65
2023-05-24T11:35:06.444Z,16.54
2023-05-24T11:36:06.513Z,16.37
2023-05-24T11:37:06.575Z,16.33
2023-05-24T11:38:06.661Z,16.37
2023-05-24T11:39:06.756Z,16.44
2023-05-24T11:40:06.856Z,16.48
2023-05-24T11:41:06.985Z,16.59
2023-05-24T11:42:07.028Z,16.52
2023-05-24T11:43:07.145Z,16.59
2023-05-24T11:44:07.179Z,16.75
2023-05-24T11:45:07.281Z,16.77
2023-05-24T11:46:07.444Z,16.84
2023-05-24T11:47:07.467Z,16.96
2023-05-24T11:48:07.606Z,17.05
2023-05-24T11:49:07.687Z,17.12
2023-05-24T11:50:07.742Z,17.18
2023-05-24T11:51:07.838Z,17.32
2023-05-24T11:52:07.953Z,17.39
2023-05-24T11:53:07.962Z,17.60
2023-05-24T11:54:08.037Z,17.63
2023-05-24T11:55:08.172Z,17.63
2023-05-24T11:56:08.211Z,17.66
2023-05-24T11:57:08.295Z,17.60
2023-05-24T11:58:08.363Z,17.63
2023-05-24T11:59:08.469Z,17.53
2023-05-24T12:00:08.522Z,17.49
2023-05-24T12:01:08.643Z,17.54
2023-05-24T12:02:08.775Z,17.60
2023-05-24T12:03:08.951Z,17.73
2023-05-24T12:04:08.938Z,17.86
2023-05-24T12:05:08.980Z,18.07
2023-05-24T12:06:09.042Z,18.23
2023-05-24T12:07:09.117Z,18.42
2023-05-24T12:08:11.730Z,18.54
2023-05-24T12:09:09.252Z,18.71
2023-05-24T12:10:09.327Z,18.82
2023-05-24T12:11:09.458Z,18.79
2023-05-24T12:12:09.509Z,18.71
2023-05-24T12:13:09.590Z,18.62
2023-05-24T12:14:09.633Z,18.47
2023-05-24T12:15:09.718Z,18.28
2023-05-24T12:16:09.796Z,18.05
2023-05-24T12:17:09.858Z,17.94
2023-05-24T12:18:09.948Z,17.83
2023-05-24T12:19:17.151Z,17.80
2023-05-24T12:20:10.172Z,17.79
2023-05-24T12:21:10.177Z,17.74
2023-05-24T12:22:10.250Z,17.71
2023-05-24T12:23:10.333Z,17.76
2023-05-24T12:24:10.392Z,17.80
2023-05-24T12:25:10.480Z,17.79
2023-05-24T12:26:10.559Z,17.71
2023-05-24T12:27:10.615Z,17.57
2023-05-24T12:28:10.684Z,17.38
2023-05-24T12:29:10.739Z,17.18
2023-05-24T12:30:10.812Z,17.10
2023-05-24T12:31:10.926Z,17.03
2023-05-24T12:32:10.955Z,16.98
2023-05-24T12:33:11.055Z,16.88
2023-05-24T12:34:11.094Z,16.72
2023-05-24T12:35:11.201Z,16.44
2023-05-24T12:36:11.304Z,16.33
2023-05-24T12:37:11.530Z,16.34
2023-05-24T12:38:11.484Z,16.41
2023-05-24T12:39:11.580Z,16.51
2023-05-24T12:40:11.663Z,16.55
2023-05-24T12:41:13.584Z,16.54
2023-05-24T12:42:11.853Z,16.44
2023-05-24T12:43:11.959Z,16.30
2023-05-24T12:44:12.020Z,16.18
2023-05-24T12:45:12.128Z,16.13
2023-05-24T12:46:12.213Z,16.07
2023-05-24T12:47:12.395Z,16.04
2023-05-24T12:48:12.436Z,15.95
2023-05-24T12:49:12.430Z,15.85
2023-05-24T12:50:12.509Z,15.84
2023-05-24T12:51:12.616Z,15.91
2023-05-24T12:52:12.829Z,15.99
2023-05-24T12:53:12.727Z,16.06
2023-05-24T12:54:12.857Z,16.06
2023-05-24T12:55:12.912Z,15.99
2023-05-24T12:56:12.965Z,15.98
2023-05-24T12:57:13.037Z,15.99
2023-05-24T12:58:13.113Z,15.95
2023-05-24T12:59:13.223Z,15.91
2023-05-24T13:00:13.262Z,15.92
2023-05-24T13:01:13.392Z,15.91
2023-05-24T13:02:13.422Z,15.92
2023-05-24T13:03:13.574Z,15.92
2023-05-24T13:04:13.607Z,15.89